sensor_id;sensor_type;location;lat;lon;timestamp;P1;durP1;ratioP1;P2;durP2;ratioP2
59040;SDS011;44825;53.200;6.448;2022-08-25T00:00:17;12.00;;;9.05;;
59040;SDS011;44825;53.200;6.448;2022-08-25T00:02:45;11.23;;;8.65;;
59040;SDS011;44825;53.200;6.448;2022-08-25T00:05:12;15.73;;;8.68;;
59040;SDS011;44825;53.200;6.448;2022-08-25T00:07:40;11.88;;;7.30;;
59040;SDS011;44825;53.200;6.448;2022-08-25T00:10:07;8.65;;;6.03;;
59040;SDS011;44825;53.200;6.448;2022-08-25T00:12:36;10.20;;;6.13;;
59040;SDS011;44825;53.200;6.448;2022-08-25T00:15:04;10.00;;;6.13;;
59040;SDS011;44825;53.200;6.448;2022-08-25T00:17:33;9.90;;;5.88;;
59040;SDS011;44825;53.200;6.448;2022-08-25T00:20:01;12.75;;;6.10;;
59040;SDS011;44825;53.200;6.448;2022-08-25T00:22:29;9.93;;;5.75;;
59040;SDS011;44825;53.200;6.448;2022-08-25T00:24:57;12.55;;;5.55;;
59040;SDS011;44825;53.200;6.448;2022-08-25T00:27:24;14.15;;;5.80;;
59040;SDS011;44825;53.200;6.448;2022-08-25T00:29:53;8.57;;;5.32;;
59040;SDS011;44825;53.200;6.448;2022-08-25T00:32:20;10.75;;;5.50;;
59040;SDS011;44825;53.200;6.448;2022-08-25T00:34:48;7.63;;;5.15;;
59040;SDS011;44825;53.200;6.448;2022-08-25T00:37:16;9.15;;;5.25;;
59040;SDS011;44825;53.200;6.448;2022-08-25T00:39:43;10.30;;;5.03;;
59040;SDS011;44825;53.200;6.448;2022-08-25T00:42:11;7.70;;;4.45;;
59040;SDS011;44825;53.200;6.448;2022-08-25T00:44:39;8.23;;;4.63;;
59040;SDS011;44825;53.200;6.448;2022-08-25T00:47:09;8.63;;;4.25;;
59040;SDS011;44825;53.200;6.448;2022-08-25T00:49:39;7.22;;;4.03;;
59040;SDS011;44825;53.200;6.448;2022-08-25T00:52:10;15.15;;;4.93;;
59040;SDS011;44825;53.200;6.448;2022-08-25T00:54:41;7.18;;;4.50;;
59040;SDS011;44825;53.200;6.448;2022-08-25T00:57:13;6.47;;;4.40;;
59040;SDS011;44825;53.200;6.448;2022-08-25T00:59:43;11.70;;;4.10;;
59040;SDS011;44825;53.200;6.448;2022-08-25T01:02:12;8.75;;;4.15;;
59040;SDS011;44825;53.200;6.448;2022-08-25T01:04:41;13.68;;;4.85;;
59040;SDS011;44825;53.200;6.448;2022-08-25T01:07:10;9.55;;;4.47;;
59040;SDS011;44825;53.200;6.448;2022-08-25T01:09:37;10.57;;;4.75;;
59040;SDS011;44825;53.200;6.448;2022-08-25T01:12:05;8.77;;;4.60;;
59040;SDS011;44825;53.200;6.448;2022-08-25T01:14:32;8.45;;;4.47;;
59040;SDS011;44825;53.200;6.448;2022-08-25T01:17:00;9.18;;;4.03;;
59040;SDS011;44825;53.200;6.448;2022-08-25T01:19:30;10.75;;;4.38;;
59040;SDS011;44825;53.200;6.448;2022-08-25T01:21:59;7.00;;;4.10;;
59040;SDS011;44825;53.200;6.448;2022-08-25T01:24:28;5.63;;;3.78;;
59040;SDS011;44825;53.200;6.448;2022-08-25T01:27:01;8.73;;;4.38;;
59040;SDS011;44825;53.200;6.448;2022-08-25T01:29:28;7.70;;;4.30;;
59040;SDS011;44825;53.200;6.448;2022-08-25T01:31:56;12.43;;;4.75;;
59040;SDS011;44825;53.200;6.448;2022-08-25T01:34:25;6.40;;;3.83;;
59040;SDS011;44825;53.200;6.448;2022-08-25T01:36:55;9.98;;;3.75;;
59040;SDS011;44825;53.200;6.448;2022-08-25T01:39:26;9.85;;;4.70;;
59040;SDS011;44825;53.200;6.448;2022-08-25T01:42:02;9.65;;;4.10;;
59040;SDS011;44825;53.200;6.448;2022-08-25T01:47:06;8.05;;;4.15;;
59040;SDS011;44825;53.200;6.448;2022-08-25T01:49:34;9.57;;;4.57;;
59040;SDS011;44825;53.200;6.448;2022-08-25T01:52:06;9.38;;;4.18;;
59040;SDS011;44825;53.200;6.448;2022-08-25T01:54:39;8.13;;;3.92;;
59040;SDS011;44825;53.200;6.448;2022-08-25T01:57:07;9.60;;;4.38;;
59040;SDS011;44825;53.200;6.448;2022-08-25T01:59:34;6.47;;;4.15;;
59040;SDS011;44825;53.200;6.448;2022-08-25T02:02:02;6.20;;;3.22;;
59040;SDS011;44825;53.200;6.448;2022-08-25T02:04:29;10.73;;;3.80;;
59040;SDS011;44825;53.200;6.448;2022-08-25T02:06:57;7.13;;;4.03;;
59040;SDS011;44825;53.200;6.448;2022-08-25T02:09:24;12.43;;;4.45;;
59040;SDS011;44825;53.200;6.448;2022-08-25T02:11:53;8.23;;;3.88;;
59040;SDS011;44825;53.200;6.448;2022-08-25T02:14:21;7.32;;;3.85;;
59040;SDS011;44825;53.200;6.448;2022-08-25T02:16:50;10.52;;;4.07;;
59040;SDS011;44825;53.200;6.448;2022-08-25T02:19:18;9.60;;;4.32;;
59040;SDS011;44825;53.200;6.448;2022-08-25T02:21:48;10.57;;;3.70;;
59040;SDS011;44825;53.200;6.448;2022-08-25T02:24:15;8.98;;;4.15;;
59040;SDS011;44825;53.200;6.448;2022-08-25T02:26:43;8.18;;;3.65;;
59040;SDS011;44825;53.200;6.448;2022-08-25T02:29:12;7.07;;;3.50;;
59040;SDS011;44825;53.200;6.448;2022-08-25T02:31:41;8.27;;;3.83;;
59040;SDS011;44825;53.200;6.448;2022-08-25T02:34:09;6.55;;;3.47;;
59040;SDS011;44825;53.200;6.448;2022-08-25T02:36:37;8.07;;;3.58;;
59040;SDS011;44825;53.200;6.448;2022-08-25T02:39:06;6.55;;;3.58;;
59040;SDS011;44825;53.200;6.448;2022-08-25T02:41:35;7.68;;;3.17;;
59040;SDS011;44825;53.200;6.448;2022-08-25T02:44:03;8.73;;;4.15;;
59040;SDS011;44825;53.200;6.448;2022-08-25T02:46:33;8.77;;;3.60;;
59040;SDS011;44825;53.200;6.448;2022-08-25T02:49:01;7.10;;;3.75;;
59040;SDS011;44825;53.200;6.448;2022-08-25T02:51:29;9.07;;;4.22;;
59040;SDS011;44825;53.200;6.448;2022-08-25T02:53:56;8.50;;;3.50;;
59040;SDS011;44825;53.200;6.448;2022-08-25T02:56:26;7.80;;;3.67;;
59040;SDS011;44825;53.200;6.448;2022-08-25T02:58:54;8.18;;;4.35;;
59040;SDS011;44825;53.200;6.448;2022-08-25T03:01:22;6.55;;;4.13;;
59040;SDS011;44825;53.200;6.448;2022-08-25T03:03:51;7.53;;;3.50;;
59040;SDS011;44825;53.200;6.448;2022-08-25T03:06:19;8.32;;;3.65;;
59040;SDS011;44825;53.200;6.448;2022-08-25T03:08:48;9.63;;;3.72;;
59040;SDS011;44825;53.200;6.448;2022-08-25T03:11:16;6.97;;;3.80;;
59040;SDS011;44825;53.200;6.448;2022-08-25T03:13:44;8.45;;;4.07;;
59040;SDS011;44825;53.200;6.448;2022-08-25T03:16:13;8.85;;;3.85;;
59040;SDS011;44825;53.200;6.448;2022-08-25T03:18:41;8.27;;;3.15;;
59040;SDS011;44825;53.200;6.448;2022-08-25T03:21:10;6.80;;;3.47;;
59040;SDS011;44825;53.200;6.448;2022-08-25T03:23:38;7.60;;;3.85;;
59040;SDS011;44825;53.200;6.448;2022-08-25T03:26:06;7.93;;;4.00;;
59040;SDS011;44825;53.200;6.448;2022-08-25T03:28:52;7.03;;;3.55;;
59040;SDS011;44825;53.200;6.448;2022-08-25T03:31:20;10.20;;;4.03;;
59040;SDS011;44825;53.200;6.448;2022-08-25T03:33:47;6.70;;;3.38;;
59040;SDS011;44825;53.200;6.448;2022-08-25T03:36:16;15.25;;;4.47;;
59040;SDS011;44825;53.200;6.448;2022-08-25T03:38:43;6.32;;;3.55;;
59040;SDS011;44825;53.200;6.448;2022-08-25T03:41:12;9.38;;;4.22;;
59040;SDS011;44825;53.200;6.448;2022-08-25T03:43:41;8.48;;;4.22;;
59040;SDS011;44825;53.200;6.448;2022-08-25T03:46:08;6.53;;;3.78;;
59040;SDS011;44825;53.200;6.448;2022-08-25T03:48:42;7.70;;;3.50;;
59040;SDS011;44825;53.200;6.448;2022-08-25T03:51:09;9.75;;;3.70;;
59040;SDS011;44825;53.200;6.448;2022-08-25T03:53:38;10.77;;;4.15;;
59040;SDS011;44825;53.200;6.448;2022-08-25T03:56:05;11.35;;;3.63;;
59040;SDS011;44825;53.200;6.448;2022-08-25T03:58:32;10.13;;;4.13;;
59040;SDS011;44825;53.200;6.448;2022-08-25T04:00:59;6.22;;;3.65;;
59040;SDS011;44825;53.200;6.448;2022-08-25T04:03:27;6.03;;;3.40;;
59040;SDS011;44825;53.200;6.448;2022-08-25T04:05:54;8.93;;;3.90;;
59040;SDS011;44825;53.200;6.448;2022-08-25T04:08:26;14.70;;;3.85;;
59040;SDS011;44825;53.200;6.448;2022-08-25T04:10:54;9.18;;;4.15;;
59040;SDS011;44825;53.200;6.448;2022-08-25T04:13:22;10.73;;;3.42;;
59040;SDS011;44825;53.200;6.448;2022-08-25T04:15:49;8.57;;;3.90;;
59040;SDS011;44825;53.200;6.448;2022-08-25T04:18:17;9.88;;;3.70;;
59040;SDS011;44825;53.200;6.448;2022-08-25T04:20:44;7.57;;;3.33;;
59040;SDS011;44825;53.200;6.448;2022-08-25T04:23:11;8.70;;;4.05;;
59040;SDS011;44825;53.200;6.448;2022-08-25T04:25:39;7.97;;;3.53;;
59040;SDS011;44825;53.200;6.448;2022-08-25T04:28:09;11.02;;;4.07;;
59040;SDS011;44825;53.200;6.448;2022-08-25T04:30:36;9.48;;;3.80;;
59040;SDS011;44825;53.200;6.448;2022-08-25T04:33:07;7.05;;;3.50;;
59040;SDS011;44825;53.200;6.448;2022-08-25T04:35:35;9.52;;;4.00;;
59040;SDS011;44825;53.200;6.448;2022-08-25T04:38:02;8.95;;;4.03;;
59040;SDS011;44825;53.200;6.448;2022-08-25T04:40:29;10.40;;;3.70;;
59040;SDS011;44825;53.200;6.448;2022-08-25T04:42:57;10.77;;;3.80;;
59040;SDS011;44825;53.200;6.448;2022-08-25T04:45:26;7.22;;;3.90;;
59040;SDS011;44825;53.200;6.448;2022-08-25T04:47:53;14.23;;;3.88;;
59040;SDS011;44825;53.200;6.448;2022-08-25T04:50:25;10.50;;;4.13;;
59040;SDS011;44825;53.200;6.448;2022-08-25T04:52:52;8.57;;;3.80;;
59040;SDS011;44825;53.200;6.448;2022-08-25T04:55:19;7.82;;;3.60;;
59040;SDS011;44825;53.200;6.448;2022-08-25T04:57:47;16.63;;;4.68;;
59040;SDS011;44825;53.200;6.448;2022-08-25T05:00:15;9.38;;;3.40;;
59040;SDS011;44825;53.200;6.448;2022-08-25T05:02:44;10.23;;;3.92;;
59040;SDS011;44825;53.200;6.448;2022-08-25T05:05:11;8.63;;;3.80;;
59040;SDS011;44825;53.200;6.448;2022-08-25T05:07:39;8.18;;;4.03;;
59040;SDS011;44825;53.200;6.448;2022-08-25T05:10:06;8.38;;;4.47;;
59040;SDS011;44825;53.200;6.448;2022-08-25T05:12:34;6.53;;;3.63;;
59040;SDS011;44825;53.200;6.448;2022-08-25T05:15:01;6.82;;;3.90;;
59040;SDS011;44825;53.200;6.448;2022-08-25T05:17:50;8.25;;;4.00;;
59040;SDS011;44825;53.200;6.448;2022-08-25T05:20:18;7.38;;;4.13;;
59040;SDS011;44825;53.200;6.448;2022-08-25T05:22:45;9.45;;;3.42;;
59040;SDS011;44825;53.200;6.448;2022-08-25T05:25:12;8.95;;;4.10;;
59040;SDS011;44825;53.200;6.448;2022-08-25T05:27:40;8.25;;;4.43;;
59040;SDS011;44825;53.200;6.448;2022-08-25T05:30:09;7.97;;;4.72;;
59040;SDS011;44825;53.200;6.448;2022-08-25T05:32:37;9.45;;;4.32;;
59040;SDS011;44825;53.200;6.448;2022-08-25T05:35:06;8.93;;;4.47;;
59040;SDS011;44825;53.200;6.448;2022-08-25T05:37:34;8.07;;;3.85;;
59040;SDS011;44825;53.200;6.448;2022-08-25T05:40:02;7.97;;;4.50;;
59040;SDS011;44825;53.200;6.448;2022-08-25T05:42:31;11.77;;;4.88;;
59040;SDS011;44825;53.200;6.448;2022-08-25T05:44:58;12.82;;;4.80;;
59040;SDS011;44825;53.200;6.448;2022-08-25T05:47:25;10.73;;;4.90;;
59040;SDS011;44825;53.200;6.448;2022-08-25T05:49:53;14.10;;;4.68;;
59040;SDS011;44825;53.200;6.448;2022-08-25T05:52:22;10.60;;;4.25;;
59040;SDS011;44825;53.200;6.448;2022-08-25T05:54:49;11.77;;;4.63;;
59040;SDS011;44825;53.200;6.448;2022-08-25T05:57:16;6.82;;;4.00;;
59040;SDS011;44825;53.200;6.448;2022-08-25T05:59:44;7.85;;;4.63;;
59040;SDS011;44825;53.200;6.448;2022-08-25T06:02:11;7.32;;;4.75;;
59040;SDS011;44825;53.200;6.448;2022-08-25T06:04:56;8.95;;;4.13;;
59040;SDS011;44825;53.200;6.448;2022-08-25T06:07:25;8.23;;;3.95;;
59040;SDS011;44825;53.200;6.448;2022-08-25T06:09:52;8.85;;;4.32;;
59040;SDS011;44825;53.200;6.448;2022-08-25T06:12:19;8.95;;;4.40;;
59040;SDS011;44825;53.200;6.448;2022-08-25T06:14:47;10.63;;;4.20;;
59040;SDS011;44825;53.200;6.448;2022-08-25T06:17:14;14.35;;;4.40;;
59040;SDS011;44825;53.200;6.448;2022-08-25T06:19:42;9.90;;;4.60;;
59040;SDS011;44825;53.200;6.448;2022-08-25T06:22:09;15.55;;;5.05;;
59040;SDS011;44825;53.200;6.448;2022-08-25T06:24:38;7.75;;;4.60;;
59040;SDS011;44825;53.200;6.448;2022-08-25T06:27:05;9.48;;;4.00;;
59040;SDS011;44825;53.200;6.448;2022-08-25T06:29:33;11.60;;;4.70;;
59040;SDS011;44825;53.200;6.448;2022-08-25T06:32:00;8.32;;;4.55;;
59040;SDS011;44825;53.200;6.448;2022-08-25T06:34:27;8.55;;;4.50;;
59040;SDS011;44825;53.200;6.448;2022-08-25T06:36:55;9.95;;;4.65;;
59040;SDS011;44825;53.200;6.448;2022-08-25T06:39:22;8.95;;;4.80;;
59040;SDS011;44825;53.200;6.448;2022-08-25T06:41:51;7.65;;;4.03;;
59040;SDS011;44825;53.200;6.448;2022-08-25T06:44:19;12.13;;;4.50;;
59040;SDS011;44825;53.200;6.448;2022-08-25T06:46:47;8.70;;;4.75;;
59040;SDS011;44825;53.200;6.448;2022-08-25T06:49:15;10.43;;;4.85;;
59040;SDS011;44825;53.200;6.448;2022-08-25T06:51:42;10.77;;;4.53;;
59040;SDS011;44825;53.200;6.448;2022-08-25T06:54:10;9.02;;;5.05;;
59040;SDS011;44825;53.200;6.448;2022-08-25T06:56:38;6.95;;;3.95;;
59040;SDS011;44825;53.200;6.448;2022-08-25T06:59:08;7.53;;;4.47;;
59040;SDS011;44825;53.200;6.448;2022-08-25T07:01:36;11.90;;;4.65;;
59040;SDS011;44825;53.200;6.448;2022-08-25T07:04:03;7.68;;;4.25;;
59040;SDS011;44825;53.200;6.448;2022-08-25T07:06:32;10.35;;;4.43;;
59040;SDS011;44825;53.200;6.448;2022-08-25T07:09:01;8.00;;;4.90;;
59040;SDS011;44825;53.200;6.448;2022-08-25T07:11:30;8.30;;;4.35;;
59040;SDS011;44825;53.200;6.448;2022-08-25T07:13:59;7.68;;;4.15;;
59040;SDS011;44825;53.200;6.448;2022-08-25T07:16:29;9.40;;;4.13;;
59040;SDS011;44825;53.200;6.448;2022-08-25T07:18:57;9.45;;;4.90;;
59040;SDS011;44825;53.200;6.448;2022-08-25T07:21:25;11.75;;;4.13;;
59040;SDS011;44825;53.200;6.448;2022-08-25T07:23:53;9.68;;;4.47;;
59040;SDS011;44825;53.200;6.448;2022-08-25T07:26:23;9.15;;;4.85;;
59040;SDS011;44825;53.200;6.448;2022-08-25T07:28:53;9.52;;;3.88;;
59040;SDS011;44825;53.200;6.448;2022-08-25T07:31:21;7.47;;;4.65;;
59040;SDS011;44825;53.200;6.448;2022-08-25T07:33:50;8.02;;;3.83;;
59040;SDS011;44825;53.200;6.448;2022-08-25T07:36:46;10.18;;;4.60;;
59040;SDS011;44825;53.200;6.448;2022-08-25T07:39:13;8.93;;;4.90;;
59040;SDS011;44825;53.200;6.448;2022-08-25T07:41:42;7.35;;;4.40;;
59040;SDS011;44825;53.200;6.448;2022-08-25T07:44:09;8.77;;;4.72;;
59040;SDS011;44825;53.200;6.448;2022-08-25T07:46:38;10.63;;;5.00;;
59040;SDS011;44825;53.200;6.448;2022-08-25T07:49:07;6.43;;;3.97;;
59040;SDS011;44825;53.200;6.448;2022-08-25T07:51:34;9.35;;;4.68;;
59040;SDS011;44825;53.200;6.448;2022-08-25T07:54:03;8.63;;;4.50;;
59040;SDS011;44825;53.200;6.448;2022-08-25T07:56:31;12.45;;;5.05;;
59040;SDS011;44825;53.200;6.448;2022-08-25T07:58:59;12.45;;;4.80;;
59040;SDS011;44825;53.200;6.448;2022-08-25T08:01:26;10.15;;;4.10;;
59040;SDS011;44825;53.200;6.448;2022-08-25T08:03:53;8.80;;;4.40;;
59040;SDS011;44825;53.200;6.448;2022-08-25T08:06:22;8.43;;;4.72;;
59040;SDS011;44825;53.200;6.448;2022-08-25T08:08:50;10.75;;;3.78;;
59040;SDS011;44825;53.200;6.448;2022-08-25T08:11:23;12.13;;;4.90;;
59040;SDS011;44825;53.200;6.448;2022-08-25T08:13:52;10.13;;;4.35;;
59040;SDS011;44825;53.200;6.448;2022-08-25T08:16:21;12.80;;;5.13;;
59040;SDS011;44825;53.200;6.448;2022-08-25T08:18:50;8.00;;;3.85;;
59040;SDS011;44825;53.200;6.448;2022-08-25T08:21:19;9.45;;;4.07;;
59040;SDS011;44825;53.200;6.448;2022-08-25T08:23:51;7.53;;;3.80;;
59040;SDS011;44825;53.200;6.448;2022-08-25T08:26:19;9.45;;;3.90;;
59040;SDS011;44825;53.200;6.448;2022-08-25T08:28:47;9.18;;;4.07;;
59040;SDS011;44825;53.200;6.448;2022-08-25T08:31:15;10.20;;;4.40;;
59040;SDS011;44825;53.200;6.448;2022-08-25T08:33:44;8.68;;;3.97;;
59040;SDS011;44825;53.200;6.448;2022-08-25T08:36:12;11.10;;;3.90;;
59040;SDS011;44825;53.200;6.448;2022-08-25T08:38:41;6.72;;;3.67;;
59040;SDS011;44825;53.200;6.448;2022-08-25T08:41:13;7.85;;;3.63;;
59040;SDS011;44825;53.200;6.448;2022-08-25T08:44:12;7.80;;;3.60;;
59040;SDS011;44825;53.200;6.448;2022-08-25T08:46:47;13.30;;;4.47;;
59040;SDS011;44825;53.200;6.448;2022-08-25T08:49:23;6.65;;;3.65;;
59040;SDS011;44825;53.200;6.448;2022-08-25T08:51:57;17.55;;;4.40;;
59040;SDS011;44825;53.200;6.448;2022-08-25T08:54:28;11.95;;;4.50;;
59040;SDS011;44825;53.200;6.448;2022-08-25T08:57:04;26.55;;;4.18;;
59040;SDS011;44825;53.200;6.448;2022-08-25T08:59:41;9.27;;;3.67;;
59040;SDS011;44825;53.200;6.448;2022-08-25T09:02:15;7.10;;;3.50;;
59040;SDS011;44825;53.200;6.448;2022-08-25T09:04:52;9.68;;;3.72;;
59040;SDS011;44825;53.200;6.448;2022-08-25T09:07:23;5.78;;;2.97;;
59040;SDS011;44825;53.200;6.448;2022-08-25T09:09:56;8.07;;;3.53;;
59040;SDS011;44825;53.200;6.448;2022-08-25T09:12:28;7.35;;;3.53;;
59040;SDS011;44825;53.200;6.448;2022-08-25T09:15:03;8.65;;;3.40;;
59040;SDS011;44825;53.200;6.448;2022-08-25T09:17:41;10.00;;;3.42;;
59040;SDS011;44825;53.200;6.448;2022-08-25T09:23:19;8.00;;;3.75;;
59040;SDS011;44825;53.200;6.448;2022-08-25T09:25:59;9.90;;;3.85;;
59040;SDS011;44825;53.200;6.448;2022-08-25T09:28:40;7.65;;;3.35;;
59040;SDS011;44825;53.200;6.448;2022-08-25T09:31:15;8.38;;;3.28;;
59040;SDS011;44825;53.200;6.448;2022-08-25T09:33:45;7.07;;;3.45;;
59040;SDS011;44825;53.200;6.448;2022-08-25T09:36:12;6.18;;;3.08;;
59040;SDS011;44825;53.200;6.448;2022-08-25T09:38:40;6.95;;;2.72;;
59040;SDS011;44825;53.200;6.448;2022-08-25T09:41:08;6.93;;;3.30;;
59040;SDS011;44825;53.200;6.448;2022-08-25T09:43:36;8.65;;;2.80;;
59040;SDS011;44825;53.200;6.448;2022-08-25T09:46:08;10.35;;;3.38;;
59040;SDS011;44825;53.200;6.448;2022-08-25T09:48:42;7.55;;;3.22;;
59040;SDS011;44825;53.200;6.448;2022-08-25T09:51:16;6.38;;;3.40;;
59040;SDS011;44825;53.200;6.448;2022-08-25T09:53:50;6.57;;;2.70;;
59040;SDS011;44825;53.200;6.448;2022-08-25T09:56:21;7.45;;;3.10;;
59040;SDS011;44825;53.200;6.448;2022-08-25T09:58:51;6.18;;;2.70;;
59040;SDS011;44825;53.200;6.448;2022-08-25T10:01:19;5.60;;;2.35;;
59040;SDS011;44825;53.200;6.448;2022-08-25T10:03:52;10.13;;;2.80;;
59040;SDS011;44825;53.200;6.448;2022-08-25T10:08:54;8.18;;;2.80;;
59040;SDS011;44825;53.200;6.448;2022-08-25T10:11:34;14.18;;;2.58;;
59040;SDS011;44825;53.200;6.448;2022-08-25T10:14:25;5.20;;;1.90;;
59040;SDS011;44825;53.200;6.448;2022-08-25T10:17:13;7.63;;;2.70;;
59040;SDS011;44825;53.200;6.448;2022-08-25T10:19:49;10.50;;;2.53;;
59040;SDS011;44825;53.200;6.448;2022-08-25T10:22:20;6.85;;;2.10;;
59040;SDS011;44825;53.200;6.448;2022-08-25T10:24:51;9.38;;;2.47;;
59040;SDS011;44825;53.200;6.448;2022-08-25T10:27:21;7.03;;;2.50;;
59040;SDS011;44825;53.200;6.448;2022-08-25T10:30:04;8.95;;;2.25;;
59040;SDS011;44825;53.200;6.448;2022-08-25T10:32:41;8.45;;;2.33;;
59040;SDS011;44825;53.200;6.448;2022-08-25T10:35:33;4.95;;;2.35;;
59040;SDS011;44825;53.200;6.448;2022-08-25T10:38:15;7.60;;;2.72;;
59040;SDS011;44825;53.200;6.448;2022-08-25T10:41:03;4.65;;;2.40;;
59040;SDS011;44825;53.200;6.448;2022-08-25T10:43:42;11.18;;;2.78;;
59040;SDS011;44825;53.200;6.448;2022-08-25T10:46:19;5.35;;;2.25;;
59040;SDS011;44825;53.200;6.448;2022-08-25T10:48:57;6.00;;;2.35;;
59040;SDS011;44825;53.200;6.448;2022-08-25T10:51:38;4.82;;;2.28;;
59040;SDS011;44825;53.200;6.448;2022-08-25T10:54:16;8.27;;;2.67;;
59040;SDS011;44825;53.200;6.448;2022-08-25T10:56:57;6.13;;;2.30;;
59040;SDS011;44825;53.200;6.448;2022-08-25T10:59:46;8.52;;;2.65;;
59040;SDS011;44825;53.200;6.448;2022-08-25T11:05:33;8.20;;;2.17;;
59040;SDS011;44825;53.200;6.448;2022-08-25T11:08:07;6.10;;;2.40;;
59040;SDS011;44825;53.200;6.448;2022-08-25T11:10:41;5.85;;;2.33;;
59040;SDS011;44825;53.200;6.448;2022-08-25T11:13:15;4.40;;;1.88;;
59040;SDS011;44825;53.200;6.448;2022-08-25T11:15:50;5.20;;;2.20;;
59040;SDS011;44825;53.200;6.448;2022-08-25T11:18:20;14.30;;;2.17;;
59040;SDS011;44825;53.200;6.448;2022-08-25T11:20:58;6.28;;;2.30;;
59040;SDS011;44825;53.200;6.448;2022-08-25T11:23:30;11.00;;;3.00;;
59040;SDS011;44825;53.200;6.448;2022-08-25T11:26:03;6.72;;;2.80;;
59040;SDS011;44825;53.200;6.448;2022-08-25T11:28:39;6.68;;;2.20;;
59040;SDS011;44825;53.200;6.448;2022-08-25T11:31:16;6.43;;;2.70;;
59040;SDS011;44825;53.200;6.448;2022-08-25T11:33:45;6.68;;;2.50;;
59040;SDS011;44825;53.200;6.448;2022-08-25T11:36:18;8.30;;;2.33;;
59040;SDS011;44825;53.200;6.448;2022-08-25T11:38:53;8.10;;;2.20;;
59040;SDS011;44825;53.200;6.448;2022-08-25T11:41:37;5.38;;;2.28;;
59040;SDS011;44825;53.200;6.448;2022-08-25T11:44:23;8.73;;;2.65;;
59040;SDS011;44825;53.200;6.448;2022-08-25T11:47:15;8.57;;;2.28;;
59040;SDS011;44825;53.200;6.448;2022-08-25T11:50:00;5.80;;;2.53;;
59040;SDS011;44825;53.200;6.448;2022-08-25T11:52:47;7.88;;;2.03;;
59040;SDS011;44825;53.200;6.448;2022-08-25T11:55:19;25.73;;;3.30;;
59040;SDS011;44825;53.200;6.448;2022-08-25T11:57:49;15.82;;;2.40;;
59040;SDS011;44825;53.200;6.448;2022-08-25T12:00:35;10.60;;;2.10;;
59040;SDS011;44825;53.200;6.448;2022-08-25T12:06:15;7.95;;;2.10;;
59040;SDS011;44825;53.200;6.448;2022-08-25T12:09:14;6.38;;;2.47;;
59040;SDS011;44825;53.200;6.448;2022-08-25T12:11:52;9.55;;;2.60;;
59040;SDS011;44825;53.200;6.448;2022-08-25T12:14:35;7.20;;;2.60;;
59040;SDS011;44825;53.200;6.448;2022-08-25T12:17:20;5.63;;;1.98;;
59040;SDS011;44825;53.200;6.448;2022-08-25T12:19:54;6.28;;;2.08;;
59040;SDS011;44825;53.200;6.448;2022-08-25T12:22:43;7.55;;;2.30;;
59040;SDS011;44825;53.200;6.448;2022-08-25T12:28:27;9.00;;;2.22;;
59040;SDS011;44825;53.200;6.448;2022-08-25T12:31:04;5.07;;;2.17;;
59040;SDS011;44825;53.200;6.448;2022-08-25T12:33:42;6.45;;;2.20;;
59040;SDS011;44825;53.200;6.448;2022-08-25T12:36:27;5.22;;;2.55;;
59040;SDS011;44825;53.200;6.448;2022-08-25T12:39:06;5.85;;;2.13;;
59040;SDS011;44825;53.200;6.448;2022-08-25T12:41:52;9.52;;;2.30;;
59040;SDS011;44825;53.200;6.448;2022-08-25T12:44:33;6.28;;;2.45;;
59040;SDS011;44825;53.200;6.448;2022-08-25T12:47:06;7.40;;;2.90;;
59040;SDS011;44825;53.200;6.448;2022-08-25T12:49:39;6.28;;;2.53;;
59040;SDS011;44825;53.200;6.448;2022-08-25T12:52:09;6.05;;;2.15;;
59040;SDS011;44825;53.200;6.448;2022-08-25T12:54:44;5.75;;;2.20;;
59040;SDS011;44825;53.200;6.448;2022-08-25T12:59:51;7.50;;;1.95;;
59040;SDS011;44825;53.200;6.448;2022-08-25T13:08:22;4.75;;;1.90;;
59040;SDS011;44825;53.200;6.448;2022-08-25T13:11:01;4.07;;;2.15;;
59040;SDS011;44825;53.200;6.448;2022-08-25T13:13:47;4.82;;;2.47;;
59040;SDS011;44825;53.200;6.448;2022-08-25T13:16:20;7.95;;;2.33;;
59040;SDS011;44825;53.200;6.448;2022-08-25T13:18:49;5.05;;;2.13;;
59040;SDS011;44825;53.200;6.448;2022-08-25T13:21:17;5.43;;;2.40;;
59040;SDS011;44825;53.200;6.448;2022-08-25T13:23:46;8.32;;;2.97;;
59040;SDS011;44825;53.200;6.448;2022-08-25T13:26:20;4.43;;;2.10;;
59040;SDS011;44825;53.200;6.448;2022-08-25T13:28:55;4.45;;;1.88;;
59040;SDS011;44825;53.200;6.448;2022-08-25T13:31:25;6.10;;;2.00;;
59040;SDS011;44825;53.200;6.448;2022-08-25T13:33:54;7.35;;;2.20;;
59040;SDS011;44825;53.200;6.448;2022-08-25T13:36:23;7.60;;;1.80;;
59040;SDS011;44825;53.200;6.448;2022-08-25T13:39:11;5.10;;;2.42;;
59040;SDS011;44825;53.200;6.448;2022-08-25T13:41:43;4.63;;;2.10;;
59040;SDS011;44825;53.200;6.448;2022-08-25T13:44:13;5.03;;;2.30;;
59040;SDS011;44825;53.200;6.448;2022-08-25T13:46:42;6.28;;;2.22;;
59040;SDS011;44825;53.200;6.448;2022-08-25T13:49:10;4.53;;;2.05;;
59040;SDS011;44825;53.200;6.448;2022-08-25T13:51:48;6.40;;;2.28;;
59040;SDS011;44825;53.200;6.448;2022-08-25T13:54:22;4.00;;;2.10;;
59040;SDS011;44825;53.200;6.448;2022-08-25T13:56:51;4.15;;;2.28;;
59040;SDS011;44825;53.200;6.448;2022-08-25T13:59:21;4.47;;;1.95;;
59040;SDS011;44825;53.200;6.448;2022-08-25T14:01:51;4.43;;;2.28;;
59040;SDS011;44825;53.200;6.448;2022-08-25T14:04:23;7.30;;;2.55;;
59040;SDS011;44825;53.200;6.448;2022-08-25T14:07:06;5.85;;;2.17;;
59040;SDS011;44825;53.200;6.448;2022-08-25T14:09:50;4.72;;;2.33;;
59040;SDS011;44825;53.200;6.448;2022-08-25T14:12:30;4.78;;;2.30;;
59040;SDS011;44825;53.200;6.448;2022-08-25T14:15:03;5.20;;;1.90;;
59040;SDS011;44825;53.200;6.448;2022-08-25T14:20:00;4.78;;;2.13;;
59040;SDS011;44825;53.200;6.448;2022-08-25T14:22:27;4.55;;;2.00;;
59040;SDS011;44825;53.200;6.448;2022-08-25T14:24:55;6.60;;;2.38;;
59040;SDS011;44825;53.200;6.448;2022-08-25T14:27:22;7.53;;;2.20;;
59040;SDS011;44825;53.200;6.448;2022-08-25T14:29:50;5.25;;;2.55;;
59040;SDS011;44825;53.200;6.448;2022-08-25T14:32:18;6.50;;;2.22;;
59040;SDS011;44825;53.200;6.448;2022-08-25T14:34:46;7.15;;;2.40;;
59040;SDS011;44825;53.200;6.448;2022-08-25T14:37:14;3.85;;;2.22;;
59040;SDS011;44825;53.200;6.448;2022-08-25T14:39:43;4.50;;;2.47;;
59040;SDS011;44825;53.200;6.448;2022-08-25T14:42:11;6.93;;;2.60;;
59040;SDS011;44825;53.200;6.448;2022-08-25T14:44:38;12.68;;;2.67;;
59040;SDS011;44825;53.200;6.448;2022-08-25T14:47:06;5.65;;;2.30;;
59040;SDS011;44825;53.200;6.448;2022-08-25T14:49:35;5.07;;;2.22;;
59040;SDS011;44825;53.200;6.448;2022-08-25T14:52:07;7.72;;;2.70;;
59040;SDS011;44825;53.200;6.448;2022-08-25T14:54:39;8.88;;;2.45;;
59040;SDS011;44825;53.200;6.448;2022-08-25T14:57:06;7.47;;;2.80;;
59040;SDS011;44825;53.200;6.448;2022-08-25T14:59:33;5.10;;;2.20;;
59040;SDS011;44825;53.200;6.448;2022-08-25T15:02:01;6.93;;;2.38;;
59040;SDS011;44825;53.200;6.448;2022-08-25T15:04:28;4.05;;;2.17;;
59040;SDS011;44825;53.200;6.448;2022-08-25T15:06:59;5.95;;;2.55;;
59040;SDS011;44825;53.200;6.448;2022-08-25T15:09:47;5.65;;;2.33;;
59040;SDS011;44825;53.200;6.448;2022-08-25T15:12:14;10.43;;;3.15;;
59040;SDS011;44825;53.200;6.448;2022-08-25T15:14:41;6.45;;;2.40;;
59040;SDS011;44825;53.200;6.448;2022-08-25T15:17:09;6.22;;;2.53;;
59040;SDS011;44825;53.200;6.448;2022-08-25T15:19:36;7.20;;;2.50;;
59040;SDS011;44825;53.200;6.448;2022-08-25T15:22:05;7.00;;;3.15;;
59040;SDS011;44825;53.200;6.448;2022-08-25T15:24:33;9.30;;;2.85;;
59040;SDS011;44825;53.200;6.448;2022-08-25T15:27:01;5.65;;;2.60;;
59040;SDS011;44825;53.200;6.448;2022-08-25T15:29:31;7.15;;;3.03;;
59040;SDS011;44825;53.200;6.448;2022-08-25T15:32:01;4.43;;;2.35;;
59040;SDS011;44825;53.200;6.448;2022-08-25T15:34:31;4.07;;;2.40;;
59040;SDS011;44825;53.200;6.448;2022-08-25T15:37:04;10.07;;;2.75;;